createdAt,value
2022-08-17T00:04:59.979Z,23.72
2022-08-17T00:10:05.853Z,23.67
2022-08-17T00:15:13.403Z,23.63
2022-08-17T00:20:19.920Z,23.62
2022-08-17T00:25:27.169Z,23.57
2022-08-17T00:30:52.747Z,23.51
2022-08-17T00:35:41.621Z,23.44
2022-08-17T00:40:50.228Z,23.37
2022-08-17T00:45:58.628Z,23.35
2022-08-17T00:51:10.027Z,23.33
2022-08-17T00:56:18.518Z,23.29
2022-08-17T01:01:25.779Z,23.25
2022-08-17T01:06:32.970Z,23.19
2022-08-17T01:11:40.286Z,23.16
2022-08-17T01:16:46.150Z,23.11
2022-08-17T01:21:54.797Z,23.07
2022-08-17T01:27:00.353Z,23.06
2022-08-17T01:32:08.759Z,22.99
2022-08-17T01:37:16.309Z,22.95
2022-08-17T01:42:46.305Z,22.70
2022-08-17T01:47:52.917Z,22.54
2022-08-17T01:53:01.450Z,22.56
2022-08-17T01:58:09.370Z,22.59
2022-08-17T02:03:15.924Z,22.63
2022-08-17T02:08:37.347Z,22.63
2022-08-17T02:13:30.268Z,22.58
2022-08-17T02:18:36.035Z,22.57
2022-08-17T02:23:45.007Z,22.56
2022-08-17T02:28:51.087Z,22.54
2022-08-17T02:34:03.721Z,22.50
2022-08-17T02:39:07.574Z,22.48
2022-08-17T02:44:13.483Z,22.47
2022-08-17T02:49:20.789Z,22.49
2022-08-17T02:54:40.076Z,22.39
2022-08-17T02:59:34.265Z,22.33
2022-08-17T03:04:39.964Z,22.29
2022-08-17T03:09:45.603Z,22.35
2022-08-17T03:14:51.121Z,22.33
2022-08-17T03:19:56.641Z,22.30
2022-08-17T03:25:02.261Z,22.23
2022-08-17T03:30:11.371Z,22.18
2022-08-17T03:35:19.980Z,22.18
2022-08-17T03:40:39.866Z,22.16
2022-08-17T03:45:51.178Z,22.20
2022-08-17T03:51:17.431Z,22.16
2022-08-17T03:56:40.517Z,22.07
2022-08-17T04:01:48.110Z,22.07
2022-08-17T04:06:53.893Z,22.06
2022-08-17T04:12:01.175Z,22.10
2022-08-17T04:17:07.266Z,22.18
2022-08-17T04:22:32.737Z,22.21
2022-08-17T04:27:20.037Z,22.21
2022-08-17T04:32:59.432Z,22.23
2022-08-17T04:37:33.012Z,22.28
2022-08-17T04:42:38.582Z,22.35
2022-08-17T04:47:44.143Z,22.39
2022-08-17T04:52:49.610Z,22.51
2022-08-17T04:57:55.688Z,22.57
2022-08-17T05:03:02.000Z,22.49
2022-08-17T05:08:08.836Z,22.59
2022-08-17T05:13:17.294Z,22.72
2022-08-17T05:18:24.680Z,22.86
2022-08-17T05:23:41.746Z,23.06
2022-08-17T05:28:38.280Z,23.23
2022-08-17T05:33:46.196Z,23.39
2022-08-17T05:38:51.965Z,23.50
2022-08-17T05:43:57.548Z,23.63
2022-08-17T05:49:09.018Z,23.79
2022-08-17T05:54:23.243Z,23.81
2022-08-17T05:59:40.658Z,24.88
2022-08-17T06:04:57.583Z,24.29
2022-08-17T06:10:09.492Z,24.18
2022-08-17T06:15:36.562Z,24.31
2022-08-17T06:20:53.757Z,24.40
2022-08-17T06:26:04.085Z,24.55
2022-08-17T06:31:22.864Z,24.67
2022-08-17T06:36:49.716Z,24.87
2022-08-17T06:42:54.813Z,25.09
2022-08-17T06:47:38.534Z,25.29
2022-08-17T06:52:47.613Z,25.45
2022-08-17T06:57:56.824Z,25.35
2022-08-17T07:03:19.118Z,25.39
2022-08-17T07:08:33.998Z,25.60
2022-08-17T07:13:51.485Z,25.76
2022-08-17T07:18:57.426Z,25.94
2022-08-17T07:24:29.715Z,26.10
2022-08-17T07:29:22.450Z,27.02
2022-08-17T07:34:29.187Z,26.59
2022-08-17T07:39:35.041Z,26.47
2022-08-17T07:44:58.001Z,26.72
2022-08-17T07:50:03.696Z,26.86
2022-08-17T07:55:27.553Z,26.94
2022-08-17T08:00:34.080Z,26.84
2022-08-17T08:05:50.594Z,27.04
2022-08-17T08:10:56.718Z,27.18
2022-08-17T08:16:23.927Z,27.40
2022-08-17T08:21:54.029Z,27.55
2022-08-17T08:27:07.099Z,27.66
2022-08-17T08:32:38.131Z,27.82
2022-08-17T08:38:20.263Z,27.95
2022-08-17T08:43:50.784Z,28.14
2022-08-17T08:49:45.303Z,28.11
2022-08-17T08:55:03.491Z,28.32
2022-08-17T09:00:17.658Z,28.35
2022-08-17T09:05:53.221Z,28.42
2022-08-17T09:11:13.277Z,28.58
2022-08-17T09:16:30.856Z,28.63
2022-08-17T09:21:49.425Z,28.84
2022-08-17T09:27:04.024Z,28.98
2022-08-17T09:32:28.628Z,29.12
2022-08-17T09:37:43.110Z,29.01
2022-08-17T09:43:03.609Z,29.09
2022-08-17T09:48:15.093Z,29.33
2022-08-17T09:53:22.827Z,29.51
2022-08-17T09:59:00.732Z,29.34
2022-08-17T10:04:30.090Z,29.43
2022-08-17T10:09:41.809Z,29.55
2022-08-17T10:15:17.490Z,29.67
2022-08-17T10:20:33.453Z,29.75
2022-08-17T10:26:00.123Z,29.88
2022-08-17T10:36:19.434Z,30.21
2022-08-17T10:41:42.723Z,30.23
2022-08-17T10:47:11.899Z,30.31
2022-08-17T10:52:32.957Z,30.57
2022-08-17T10:57:41.568Z,30.66
2022-08-17T11:02:55.484Z,30.78
2022-08-17T11:08:20.741Z,30.94
2022-08-17T11:13:46.454Z,31.08
2022-08-17T11:18:55.155Z,31.05
2022-08-17T11:24:24.781Z,31.06
2022-08-17T11:29:52.645Z,31.06
2022-08-17T11:35:15.235Z,31.14
2022-08-17T11:40:29.590Z,30.93
2022-08-17T11:46:13.262Z,30.88
2022-08-17T11:51:36.851Z,31.03
2022-08-17T11:56:45.400Z,31.09
2022-08-17T12:01:57.085Z,31.12
2022-08-17T12:07:12.279Z,31.30
2022-08-17T12:12:20.964Z,31.53
2022-08-17T12:17:40.614Z,31.58
2022-08-17T12:22:53.469Z,31.59
2022-08-17T12:28:06.872Z,31.61
2022-08-17T12:33:11.951Z,31.65
2022-08-17T12:38:32.182Z,31.78
2022-08-17T12:43:30.486Z,31.90
2022-08-17T12:48:36.970Z,31.93
2022-08-17T12:53:45.571Z,31.79
2022-08-17T12:58:56.703Z,31.75
2022-08-17T13:04:03.873Z,31.50
2022-08-17T13:09:12.413Z,31.49
2022-08-17T13:14:21.146Z,31.45
2022-08-17T13:19:39.734Z,31.60
2022-08-17T13:24:38.103Z,31.63
2022-08-17T13:29:51.538Z,32.72
2022-08-17T13:35:14.173Z,32.22
2022-08-17T13:40:16.593Z,32.15
2022-08-17T13:45:39.345Z,32.06
2022-08-17T13:51:00.003Z,32.12
2022-08-17T13:56:37.125Z,32.16
2022-08-17T14:01:37.924Z,32.25
2022-08-17T14:07:13.118Z,32.31
2022-08-17T14:12:21.965Z,32.22
2022-08-17T14:17:33.562Z,32.12
2022-08-17T14:22:40.564Z,32.03
2022-08-17T14:27:53.389Z,32.08
2022-08-17T14:32:54.354Z,32.06
2022-08-17T14:37:59.816Z,32.10
2022-08-17T14:43:05.490Z,32.07
2022-08-17T14:48:11.384Z,31.93
2022-08-17T14:53:17.434Z,31.78
2022-08-17T14:58:23.823Z,31.78
2022-08-17T15:03:29.405Z,31.84
2022-08-17T15:08:35.145Z,31.77
2022-08-17T15:13:52.550Z,31.85
2022-08-17T15:18:49.346Z,31.96
2022-08-17T15:23:55.095Z,32.19
2022-08-17T15:29:00.900Z,33.12
2022-08-17T15:34:07.999Z,32.49
2022-08-17T15:39:13.760Z,32.20
2022-08-17T15:44:21.989Z,32.33
2022-08-17T15:49:29.192Z,32.43
2022-08-17T15:54:36.073Z,32.26
2022-08-17T15:59:44.627Z,32.06
2022-08-17T16:04:52.111Z,32.03
2022-08-17T16:09:58.925Z,32.14
2022-08-17T16:15:05.928Z,32.19
2022-08-17T16:20:20.566Z,32.75
2022-08-17T16:25:40.298Z,32.90
2022-08-17T16:30:32.327Z,32.54
2022-08-17T16:35:38.233Z,32.37
2022-08-17T16:40:43.787Z,31.89
2022-08-17T16:45:52.087Z,31.63
2022-08-17T16:51:03.729Z,31.41
2022-08-17T16:56:07.183Z,31.16
2022-08-17T17:01:13.232Z,30.97
2022-08-17T17:06:34.034Z,30.81
2022-08-17T17:11:54.957Z,30.69
2022-08-17T17:17:06.589Z,30.47
2022-08-17T17:22:20.830Z,30.35
2022-08-17T17:27:50.738Z,30.31
2022-08-17T17:32:59.061Z,30.15
2022-08-17T17:38:07.635Z,29.93
2022-08-17T17:43:37.799Z,29.78
2022-08-17T17:48:23.872Z,29.67
2022-08-17T17:53:48.077Z,29.61
2022-08-17T17:59:05.314Z,29.45
2022-08-17T18:04:30.405Z,29.38
2022-08-17T18:10:01.098Z,29.29
2022-08-17T18:15:06.858Z,29.13
2022-08-17T18:20:12.365Z,29.02
2022-08-17T18:25:40.623Z,28.97
2022-08-17T18:30:47.690Z,28.95
2022-08-17T18:35:58.835Z,28.78
2022-08-17T18:41:07.980Z,28.74
2022-08-17T18:46:33.423Z,28.63
2022-08-17T18:51:43.810Z,28.51
2022-08-17T18:57:00.593Z,28.41
2022-08-17T19:02:34.526Z,28.36
2022-08-17T19:07:29.822Z,28.23
2022-08-17T19:12:46.994Z,28.16
2022-08-17T19:18:15.666Z,28.07
2022-08-17T19:23:26.899Z,28.01
2022-08-17T19:28:38.226Z,27.93
2022-08-17T19:33:48.149Z,27.84
2022-08-17T19:39:20.255Z,27.78
2022-08-17T19:44:47.547Z,27.68
2022-08-17T19:50:05.172Z,27.58
2022-08-17T19:55:26.293Z,27.55
2022-08-17T20:00:34.129Z,27.50
2022-08-17T20:06:08.611Z,27.44
2022-08-17T20:10:56.097Z,27.38
2022-08-17T20:16:04.656Z,27.30
2022-08-17T20:21:24.846Z,27.24
2022-08-17T20:26:36.253Z,27.22
2022-08-17T20:31:59.623Z,27.14
2022-08-17T20:37:17.200Z,27.10
2022-08-17T20:42:27.342Z,27.01
2022-08-17T20:47:55.331Z,26.98
2022-08-17T20:52:55.681Z,26.88
2022-08-17T20:58:09.254Z,26.80
2022-08-17T21:03:23.715Z,26.65
2022-08-17T21:08:58.057Z,26.56
2022-08-17T21:14:24.701Z,26.48
2022-08-17T21:20:09.865Z,26.41
2022-08-17T21:25:13.258Z,26.34
2022-08-17T21:30:36.885Z,26.29
2022-08-17T21:35:58.549Z,26.18
2022-08-17T21:41:04.410Z,26.12
2022-08-17T21:46:12.949Z,26.09
2022-08-17T21:51:27.730Z,26.02
2022-08-17T21:56:41.727Z,25.93
2022-08-17T22:02:06.295Z,25.90
2022-08-17T22:07:14.524Z,25.81
2022-08-17T22:12:22.393Z,25.71
2022-08-17T22:17:36.820Z,25.66
2022-08-17T22:23:09.315Z,25.59
2022-08-17T22:28:16.313Z,25.53
2022-08-17T22:33:44.346Z,25.44
2022-08-17T22:38:50.959Z,25.38
2022-08-17T22:43:58.108Z,25.33
2022-08-17T22:49:03.874Z,25.29
2022-08-17T22:54:33.306Z,25.21
2022-08-17T22:59:50.528Z,25.17
2022-08-17T23:05:14.450Z,25.08
2022-08-17T23:10:20.092Z,25.04
2022-08-17T23:15:27.480Z,24.99
2022-08-17T23:20:36.134Z,24.96
2022-08-17T23:25:44.266Z,24.94
2022-08-17T23:30:50.648Z,24.94
2022-08-17T23:35:58.421Z,24.91
2022-08-17T23:41:07.764Z,24.95
2022-08-17T23:46:13.383Z,24.97
2022-08-17T23:51:22.837Z,24.96
2022-08-17T23:56:28.401Z,24.99
